Time;durP1;ratioP1;P1;durP2;ratioP2;P2;SDS_P1;SDS_P2;PMS_P1;PMS_P2;Temp;Humidity;BMP_temperature;BMP_pressure;BME280_temperature;BME280_humidity;BME280_pressure;Samples;Min_cycle;Max_cycle;Signal;HPM_P1;HPM_P2
2022/02/21 00:01:35;;;;;;;0.98;0.40;;;;;;;9.12;100.00;96347.78;10320370;28;20077;-63
2022/02/21 00:06:43;;;;;;;2.53;0.50;;;;;;;9.11;100.00;96287.06;10321236;28;20054;-62
2022/02/21 00:11:46;;;;;;;1.08;0.40;;;;;;;9.16;100.00;96278.38;10314834;28;20042;-62
2022/02/21 00:16:49;;;;;;;2.67;0.50;;;;;;;9.15;100.00;96260.63;10298831;28;20085;-63
2022/02/21 00:21:54;;;;;;;0.98;0.38;;;;;;;9.14;100.00;96232.09;10297749;28;20039;-62
2022/02/21 00:26:58;;;;;;;1.23;0.40;;;;;;;9.20;100.00;96220.50;10303656;28;20864;-62
2022/02/21 00:32:01;;;;;;;1.42;0.50;;;;;;;9.19;100.00;96195.53;10300355;28;20046;-62
2022/02/21 00:37:06;;;;;;;1.63;0.32;;;;;;;9.13;100.00;96168.66;10306904;28;20238;-62
2022/02/21 00:42:09;;;;;;;1.23;0.40;;;;;;;9.13;100.00;96166.78;10301759;28;20058;-62
2022/02/21 00:47:12;;;;;;;1.10;0.50;;;;;;;9.12;100.00;96178.56;10302194;28;20056;-62
2022/02/21 00:52:17;;;;;;;0.73;0.32;;;;;;;9.08;100.00;96143.25;10304634;28;20046;-62
2022/02/21 00:57:20;;;;;;;0.73;0.40;;;;;;;9.10;100.00;96092.84;10306100;28;20570;-61
2022/02/21 01:02:23;;;;;;;1.25;0.40;;;;;;;9.14;100.00;96184.56;10303235;28;20039;-64
2022/02/21 01:07:29;;;;;;;1.02;0.43;;;;;;;9.11;100.00;96139.34;10308813;28;20495;-62
2022/02/21 01:12:32;;;;;;;0.85;0.30;;;;;;;9.15;100.00;96126.31;10313307;28;20087;-63
2022/02/21 01:17:35;;;;;;;0.65;0.28;;;;;;;9.12;100.00;96103.34;10311479;28;20460;-63
2022/02/21 01:22:40;;;;;;;0.30;0.20;;;;;;;9.12;100.00;96130.22;10312025;28;20046;-61
2022/02/21 01:28:33;;;;;;;0.73;0.30;;;;;;;9.14;100.00;96124.66;10320311;28;20080;-62
2022/02/21 01:33:36;;;;;;;0.35;0.20;;;;;;;9.07;100.00;96095.13;10314266;28;20129;-63
2022/02/21 01:38:41;;;;;;;0.82;0.30;;;;;;;9.07;100.00;96084.38;10320536;28;20073;-62
2022/02/21 01:43:47;;;;;;;0.47;0.30;;;;;;;9.01;100.00;96067.25;10309346;28;20046;-63
2022/02/21 01:48:50;;;;;;;0.55;0.20;;;;;;;8.99;100.00;96052.38;10319124;28;20072;-63
2022/02/21 01:53:56;;;;;;;0.10;0.10;;;;;;;8.97;100.00;96039.16;10310900;28;20046;-63
2022/02/21 01:58:59;;;;;;;0.40;0.20;;;;;;;8.90;100.00;96033.78;10324270;28;20047;-63
2022/02/21 02:04:04;;;;;;;0.98;0.20;;;;;;;8.93;100.00;96059.41;10308828;28;20232;-63
2022/02/21 02:09:08;;;;;;;1.25;0.25;;;;;;;8.87;100.00;96049.50;10293994;28;20125;-65
2022/02/21 02:14:27;;;;;;;0.35;0.10;;;;;;;8.90;100.00;96033.78;10300716;28;20043;-63
2022/02/21 02:19:31;;;;;;;0.30;0.10;;;;;;;8.88;100.00;96051.16;10307413;28;20050;-63
2022/02/21 02:24:40;;;;;;;0.20;0.10;;;;;;;8.89;100.00;95999.91;10302836;28;20101;-64
2022/02/21 02:29:45;;;;;;;0.60;0.30;;;;;;;9.00;100.00;95995.78;10337269;28;20054;-62
2022/02/21 02:34:51;;;;;;;0.20;0.10;;;;;;;9.04;100.00;95986.28;10325084;28;20081;-62
2022/02/21 02:39:57;;;;;;;3.10;0.40;;;;;;;8.68;100.00;96084.22;10368485;28;20062;-62
2022/02/21 02:45:07;;;;;;;7.20;1.30;;;;;;;6.38;100.00;96227.84;10373306;28;20046;-64
2022/02/21 02:50:12;;;;;;;1.00;0.32;;;;;;;5.33;100.00;96216.41;10368395;28;20034;-64
2022/02/21 02:55:17;;;;;;;1.35;0.43;;;;;;;4.72;100.00;96182.63;10341021;28;20415;-64
2022/02/21 03:00:20;;;;;;;0.57;0.30;;;;;;;4.91;100.00;96134.09;10307417;28;20059;-64
2022/02/21 03:05:23;;;;;;;2.05;0.20;;;;;;;5.00;100.00;96174.03;10302675;28;20113;-63
2022/02/21 03:10:28;;;;;;;0.68;0.40;;;;;;;5.14;100.00;96145.72;10303866;28;20525;-64
2022/02/21 03:15:31;;;;;;;0.60;0.30;;;;;;;5.38;100.00;96220.19;10305297;28;20061;-65
2022/02/21 03:20:34;;;;;;;3.10;0.30;;;;;;;5.57;100.00;96142.38;10303931;28;20133;-63
2022/02/21 03:25:38;;;;;;;0.30;0.20;;;;;;;5.62;100.00;96151.50;10309730;28;20046;-63
2022/02/21 03:30:42;;;;;;;0.63;0.25;;;;;;;5.67;100.00;96153.59;10307608;28;20162;-62
2022/02/21 03:35:45;;;;;;;0.60;0.30;;;;;;;5.71;100.00;96130.81;10314440;28;20125;-63
2022/02/21 03:40:51;;;;;;;0.47;0.20;;;;;;;5.63;100.00;96138.94;10316843;28;20054;-61
2022/02/21 03:45:54;;;;;;;1.17;0.47;;;;;;;5.61;100.00;96157.84;10317173;28;20077;-63
2022/02/21 03:50:57;;;;;;;0.52;0.30;;;;;;;5.58;100.00;96178.75;10321434;28;20510;-62
2022/02/21 03:56:02;;;;;;;3.42;0.30;;;;;;;5.47;100.00;96153.34;10317126;28;20122;-63
2022/02/21 04:01:05;;;;;;;0.85;0.38;;;;;;;5.50;100.00;96167.16;10299684;28;20042;-63
2022/02/21 04:06:09;;;;;;;0.95;0.40;;;;;;;5.37;100.00;96156.28;10296886;28;20121;-62
2022/02/21 04:11:13;;;;;;;1.70;0.35;;;;;;;5.26;100.00;96178.94;10299557;28;20146;-63
2022/02/21 04:16:16;;;;;;;0.60;0.38;;;;;;;5.25;100.00;96186.09;10303425;28;20085;-63
2022/02/21 04:21:20;;;;;;;1.92;0.50;;;;;;;5.20;100.00;96169.81;10296551;28;20169;-63
2022/02/21 04:26:24;;;;;;;0.73;0.40;;;;;;;5.23;100.00;96217.47;10307062;28;20082;-61
2022/02/21 04:31:27;;;;;;;0.82;0.40;;;;;;;5.24;100.00;96235.16;10305731;28;20074;-63
2022/02/21 04:36:34;;;;;;;1.25;0.43;;;;;;;5.29;100.00;96237.31;10299052;28;20070;-62
2022/02/21 04:41:38;;;;;;;0.90;0.40;;;;;;;5.33;100.00;96227.91;10304543;28;20629;-63
2022/02/21 04:46:41;;;;;;;0.80;0.40;;;;;;;5.34;100.00;96244.78;10303858;28;20042;-63
2022/02/21 04:51:45;;;;;;;0.70;0.40;;;;;;;5.28;100.00;96285.53;10302492;28;20038;-63
2022/02/21 04:56:49;;;;;;;1.20;0.40;;;;;;;5.23;100.00;96289.56;10304402;28;20121;-62
2022/02/21 05:01:53;;;;;;;0.40;0.30;;;;;;;5.16;100.00;96291.28;10304839;28;20043;-63
2022/02/21 05:06:56;;;;;;;1.10;0.40;;;;;;;5.06;100.00;96256.03;10302508;28;20743;-63
2022/02/21 05:12:01;;;;;;;0.85;0.47;;;;;;;4.90;100.00;96249.81;10307622;28;20512;-63
2022/02/21 05:17:07;;;;;;;1.15;0.55;;;;;;;4.83;100.00;96243.53;10309529;28;20060;-63
2022/02/21 05:22:11;;;;;;;1.25;0.45;;;;;;;4.75;100.00;96246.28;10306935;28;20157;-64
2022/02/21 05:27:16;;;;;;;1.27;0.50;;;;;;;4.64;100.00;96274.19;10308818;28;20055;-63
2022/02/21 05:32:19;;;;;;;2.55;0.50;;;;;;;4.60;100.00;96294.19;10312290;28;20469;-62
2022/02/21 05:37:22;;;;;;;1.40;0.60;;;;;;;4.48;100.00;96337.25;10312808;28;20053;-63
2022/02/21 05:42:26;;;;;;;0.60;0.50;;;;;;;4.38;100.00;96325.16;10306813;28;20117;-65
2022/02/21 05:47:30;;;;;;;2.22;0.50;;;;;;;4.43;100.00;96370.78;10324977;28;20089;-62
2022/02/21 05:52:34;;;;;;;3.53;0.80;;;;;;;4.38;100.00;96349.16;10318335;28;20446;-62
2022/02/21 05:57:38;;;;;;;2.15;0.60;;;;;;;4.29;100.00;96345.69;10303144;28;20423;-63
2022/02/21 06:02:41;;;;;;;1.85;0.60;;;;;;;4.17;100.00;96366.56;10292065;28;20053;-63
2022/02/21 06:07:44;;;;;;;1.45;0.65;;;;;;;4.09;100.00;96387.88;10295539;28;20078;-63
2022/02/21 06:12:49;;;;;;;3.13;0.90;;;;;;;4.04;100.00;96383.06;10295085;28;20157;-64
2022/02/21 06:17:52;;;;;;;2.15;0.75;;;;;;;4.06;100.00;96428.22;10311369;28;20499;-62
2022/02/21 06:22:55;;;;;;;2.85;0.90;;;;;;;4.12;100.00;96406.22;10291111;28;20057;-61
2022/02/21 06:27:59;;;;;;;2.60;0.85;;;;;;;3.92;100.00;96443.88;10296808;28;20467;-62
2022/02/21 06:33:02;;;;;;;2.88;0.80;;;;;;;2.56;100.00;96561.94;10298222;28;20125;-61
2022/02/21 06:38:05;;;;;;;3.53;0.85;;;;;;;1.96;100.00;96503.28;10296143;28;20125;-63
2022/02/21 06:43:10;;;;;;;4.82;0.95;;;;;;;2.01;100.00;96508.13;10298083;28;20055;-64
2022/02/21 06:48:15;;;;;;;5.85;1.70;;;;;;;2.03;100.00;96511.47;10297642;28;20050;-65
2022/02/21 06:53:19;;;;;;;3.55;1.10;;;;;;;2.20;100.00;96508.91;10303368;28;20343;-62
2022/02/21 06:58:24;;;;;;;3.95;1.08;;;;;;;2.38;100.00;96515.00;10303361;28;20132;-62
2022/02/21 07:03:28;;;;;;;4.85;1.30;;;;;;;2.59;100.00;96522.59;10303175;28;20102;-68
2022/02/21 07:08:31;;;;;;;4.57;1.30;;;;;;;2.67;100.00;96532.44;10311729;28;20081;-63
2022/02/21 07:13:36;;;;;;;4.03;1.10;;;;;;;2.96;100.00;96549.03;10318057;28;20126;-65
2022/02/21 07:18:39;;;;;;;2.40;0.80;;;;;;;3.17;100.00;96559.25;10317221;28;20117;-63
2022/02/21 07:23:42;;;;;;;3.25;1.05;;;;;;;3.25;100.00;96540.66;10317309;28;20475;-62
2022/02/21 07:28:46;;;;;;;2.38;0.75;;;;;;;3.26;100.00;96552.97;10316402;28;20050;-65
2022/02/21 07:33:49;;;;;;;2.58;0.90;;;;;;;3.19;100.00;96554.63;10319926;28;20137;-64
2022/02/21 07:38:53;;;;;;;2.65;1.00;;;;;;;3.12;100.00;96582.88;10316989;28;21079;-66
2022/02/21 07:43:57;;;;;;;3.13;0.82;;;;;;;3.20;100.00;96556.28;10321530;28;20104;-67
2022/02/21 07:49:00;;;;;;;3.38;0.98;;;;;;;3.16;100.00;96654.22;10324810;28;20066;-66
2022/02/21 07:54:03;;;;;;;3.13;0.90;;;;;;;3.21;100.00;96596.03;10315878;28;20089;-64
2022/02/21 07:59:28;;;;;;;2.35;0.63;;;;;;;3.31;100.00;96600.38;10299748;28;20053;-62
2022/02/21 08:04:31;;;;;;;2.45;0.73;;;;;;;3.38;100.00;96590.78;10301997;28;20085;-60
2022/02/21 08:09:35;;;;;;;2.25;0.70;;;;;;;3.48;100.00;96601.25;10306434;28;20452;-62
2022/02/21 08:14:39;;;;;;;3.30;0.73;;;;;;;3.48;100.00;96622.56;10295159;28;20054;-62
2022/02/21 08:19:42;;;;;;;2.08;0.90;;;;;;;3.53;100.00;96636.25;10301122;28;20897;-63
2022/02/21 08:24:45;;;;;;;3.28;0.90;;;;;;;3.47;100.00;96632.41;10308162;28;20142;-62
2022/02/21 08:29:49;;;;;;;1.75;0.63;;;;;;;3.36;100.00;96638.00;10299084;28;20097;-64
2022/02/21 08:34:53;;;;;;;4.05;0.73;;;;;;;3.32;100.00;96629.50;10305781;28;20125;-64
2022/02/21 08:39:56;;;;;;;2.45;1.20;;;;;;;3.35;100.00;96652.31;10310083;28;20050;-65
2022/02/21 08:45:02;;;;;;;1.60;0.50;;;;;;;3.51;100.00;96640.88;10302940;28;20195;-63
2022/02/21 08:50:10;;;;;;;3.45;0.80;;;;;;;3.69;100.00;96646.09;10307453;28;20129;-63
2022/02/21 08:55:15;;;;;;;1.92;0.60;;;;;;;3.66;100.00;96657.94;10303424;28;20046;-64
2022/02/21 09:00:19;;;;;;;2.55;0.80;;;;;;;3.66;100.00;96649.09;10307525;28;20054;-63
2022/02/21 09:05:25;;;;;;;2.95;0.80;;;;;;;3.80;100.00;96685.75;10304024;28;20137;-61
2022/02/21 09:10:28;;;;;;;1.65;0.68;;;;;;;3.87;100.00;96675.28;10310931;28;20046;-64
2022/02/21 09:15:33;;;;;;;2.42;0.80;;;;;;;3.92;100.00;96678.31;10305230;28;20073;-64
2022/02/21 09:20:36;;;;;;;1.90;0.70;;;;;;;4.03;100.00;96687.00;10315880;28;20046;-65
2022/02/21 09:25:39;;;;;;;1.00;0.50;;;;;;;4.11;100.00;96665.69;10310464;28;20527;-65
2022/02/21 09:30:44;;;;;;;1.33;0.60;;;;;;;4.20;100.00;96674.53;10317538;28;20057;-65
2022/02/21 09:35:47;;;;;;;2.15;0.70;;;;;;;4.04;100.00;96665.50;10309408;28;20113;-63
2022/02/21 09:40:54;;;;;;;2.47;0.80;;;;;;;3.94;100.00;96670.97;10315289;28;20142;-64
2022/02/21 09:46:00;;;;;;;2.50;0.77;;;;;;;3.94;100.00;96681.63;10310281;28;20081;-64
2022/02/21 09:51:04;;;;;;;1.95;0.82;;;;;;;3.87;100.00;96669.97;10312529;28;20065;-64
2022/02/21 09:56:07;;;;;;;2.47;0.88;;;;;;;3.92;100.00;96662.34;10292760;28;20121;-64
2022/02/21 10:01:12;;;;;;;2.97;1.20;;;;;;;3.99;100.00;96687.31;10294092;28;20137;-63
2022/02/21 10:06:17;;;;;;;3.85;1.10;;;;;;;4.10;100.00;96674.69;10287532;28;20117;-62
2022/02/21 10:11:25;;;;;;;3.20;1.08;;;;;;;4.19;100.00;96681.69;10301556;28;20038;-64
2022/02/21 10:16:40;;;;;;;4.10;1.27;;;;;;;4.21;100.00;96679.69;10306457;28;20056;-64
2022/02/21 10:21:49;;;;;;;5.10;1.10;;;;;;;4.48;100.00;96664.41;10295834;28;20055;-64
2022/02/21 10:26:52;;;;;;;2.85;0.90;;;;;;;4.76;100.00;96698.75;10304051;28;20070;-63
2022/02/21 10:32:09;;;;;;;3.92;1.10;;;;;;;4.98;100.00;96672.38;10302355;28;20042;-63
2022/02/21 10:37:14;;;;;;;4.55;1.05;;;;;;;5.18;100.00;96663.00;10310650;28;20050;-63
2022/02/21 10:42:26;;;;;;;6.60;1.38;;;;;;;5.28;100.00;96670.81;10317142;28;20121;-62
2022/02/21 10:47:30;;;;;;;;;;;;;;;5.37;100.00;96666.25;10319655;28;20066;-59
2022/02/21 10:52:36;;;;;;;2.67;1.00;;;;;;;5.30;100.00;96670.63;10313792;28;19953;-64
2022/02/21 10:57:40;;;;;;;5.07;1.20;;;;;;;5.17;100.00;96673.84;10321532;28;20499;-62
2022/02/21 11:02:45;;;;;;;4.10;1.10;;;;;;;5.15;100.00;96668.66;10314883;28;20125;-63
2022/02/21 11:07:49;;;;;;;2.58;1.08;;;;;;;5.19;100.00;96702.03;10319061;28;20073;-64
2022/02/21 11:12:53;;;;;;;3.20;1.10;;;;;;;5.39;100.00;96691.81;10321111;28;20124;-64
2022/02/21 11:18:00;;;;;;;3.13;1.00;;;;;;;5.55;100.00;96677.56;10319915;28;20074;-63
2022/02/21 11:23:03;;;;;;;3.95;1.10;;;;;;;5.43;100.00;96676.28;10323695;28;20498;-69
2022/02/21 11:28:14;;;;;;;5.20;1.25;;;;;;;5.84;100.00;96675.28;10326959;28;20459;-64
2022/02/21 11:33:20;;;;;;;4.45;1.13;;;;;;;6.23;100.00;96684.28;10320525;28;20050;-65
2022/02/21 11:38:25;;;;;;;3.13;0.88;;;;;;;5.95;86.60;96695.41;10326919;28;20105;-65
2022/02/21 11:43:35;;;;;;;2.25;0.90;;;;;;;5.83;90.45;96674.41;10327424;28;20045;-64
2022/02/21 11:48:57;;;;;;;3.85;1.10;;;;;;;5.70;91.34;96655.47;10321312;28;20719;-65
2022/02/21 12:00:55;;;;;;;5.13;0.98;;;;;;;5.99;89.00;96660.19;10368562;28;20046;-66
2022/02/21 12:06:32;;;;;;;3.47;0.98;;;;;;;5.85;89.42;96663.56;10376606;28;20057;-69
2022/02/21 12:11:43;;;;;;;3.58;1.10;;;;;;;5.71;88.49;96657.09;10355042;28;20039;-70
2022/02/21 12:17:09;;;;;;;6.13;1.00;;;;;;;5.60;83.06;96645.00;10305591;28;20101;-69
2022/02/21 12:22:19;;;;;;;4.15;1.00;;;;;;;5.56;89.48;96646.31;10300290;28;20061;-68
2022/02/21 12:27:23;;;;;;;3.35;1.08;;;;;;;5.74;96.85;96643.41;10304508;28;20086;-70
2022/02/21 12:32:29;;;;;;;6.22;1.20;;;;;;;5.71;96.42;96625.91;10298660;28;20047;-68
2022/02/21 12:37:37;;;;;;;2.78;1.10;;;;;;;5.78;96.79;96619.84;10307475;28;20121;-68
2022/02/21 12:42:40;;;;;;;3.15;1.05;;;;;;;5.85;89.85;96602.13;10302314;28;20494;-66
2022/02/21 12:47:44;;;;;;;2.63;0.88;;;;;;;5.88;87.85;96603.59;10300134;28;20069;-68
2022/02/21 12:52:49;;;;;;;2.90;1.00;;;;;;;5.81;86.07;96584.75;10308768;28;20048;-67
2022/02/21 12:57:52;;;;;;;4.57;0.95;;;;;;;5.77;88.10;96575.41;10304830;28;20534;-67
2022/02/21 13:02:55;;;;;;;3.03;0.90;;;;;;;5.95;89.51;96573.31;10311440;28;20476;-67
2022/02/21 13:08:04;;;;;;;3.35;1.00;;;;;;;6.20;83.59;96549.09;10310214;28;20043;-68
2022/02/21 13:13:07;;;;;;;3.53;0.93;;;;;;;6.26;70.92;96542.22;10310578;28;20162;-66
2022/02/21 13:18:11;;;;;;;2.78;0.68;;;;;;;6.39;68.23;96553.13;10311718;28;20431;-68
2022/02/21 13:23:15;;;;;;;3.42;1.00;;;;;;;6.22;70.53;96567.63;10311216;28;20074;-66
2022/02/21 13:28:20;;;;;;;3.20;1.00;;;;;;;6.06;66.05;96531.16;10314754;28;20458;-67
2022/02/21 13:33:50;;;;;;;4.95;1.55;;;;;;;6.15;83.00;96524.75;10312917;28;20042;-66
2022/02/21 13:38:58;;;;;;;2.92;1.08;;;;;;;6.32;77.93;96518.25;10329154;28;20142;-70
2022/02/21 13:44:23;;;;;;;4.18;1.08;;;;;;;6.18;73.82;96503.00;10313212;28;20046;-66
2022/02/21 13:49:36;;;;;;;2.10;1.02;;;;;;;6.27;72.90;96479.69;10300730;28;20055;-68
2022/02/21 13:54:44;;;;;;;4.40;1.00;;;;;;;6.28;75.72;96466.13;10296259;28;20042;-64
2022/02/21 13:59:51;;;;;;;2.03;0.75;;;;;;;6.25;74.98;96479.84;10288271;28;20133;-63
2022/02/21 14:05:08;;;;;;;2.20;0.80;;;;;;;6.10;81.20;96465.66;10297601;28;20134;-65
2022/02/21 14:10:15;;;;;;;2.65;0.80;;;;;;;6.10;80.09;96439.72;10297496;28;20454;-66
2022/02/21 14:15:18;;;;;;;2.42;0.90;;;;;;;6.15;81.49;96418.66;10290467;28;20138;-64
2022/02/21 14:20:22;;;;;;;2.45;0.73;;;;;;;6.36;78.96;96406.38;10307201;28;20069;-67
2022/02/21 14:25:39;;;;;;;3.58;0.82;;;;;;;6.33;82.55;96430.81;10296711;28;20105;-62
2022/02/21 14:30:46;;;;;;;2.35;0.88;;;;;;;6.32;86.73;96415.78;10297244;28;20050;-63
2022/02/21 14:35:50;;;;;;;2.17;0.75;;;;;;;6.23;90.03;96403.53;10302110;28;20054;-61
2022/02/21 14:40:57;;;;;;;2.00;0.80;;;;;;;6.13;90.16;96404.63;10300267;28;20058;-61
2022/02/21 14:46:01;;;;;;;3.35;0.70;;;;;;;6.03;90.21;96385.34;10297389;28;20130;-65
2022/02/21 14:51:05;;;;;;;1.75;0.82;;;;;;;6.02;92.58;96381.03;10303601;28;20082;-60
2022/02/21 14:56:09;;;;;;;2.72;0.98;;;;;;;6.08;94.07;96368.75;10300933;28;20043;-61
2022/02/21 15:01:12;;;;;;;1.30;0.50;;;;;;;6.05;98.87;96380.66;10305196;28;20050;-65
2022/02/21 15:06:17;;;;;;;2.30;0.88;;;;;;;6.00;99.26;96399.06;10300880;28;20050;-67
2022/02/21 15:11:21;;;;;;;2.20;0.65;;;;;;;5.95;100.00;96385.38;10308249;28;20161;-63
2022/02/21 15:16:25;;;;;;;3.75;0.80;;;;;;;5.92;100.00;96367.06;10309451;28;20069;-63
2022/02/21 15:21:29;;;;;;;3.17;0.63;;;;;;;5.96;100.00;96384.38;10313596;28;20066;-60
2022/02/21 15:26:34;;;;;;;2.67;0.80;;;;;;;5.89;100.00;96352.22;10314124;28;20039;-64
2022/02/21 15:31:37;;;;;;;2.88;0.70;;;;;;;5.87;100.00;96375.63;10321263;28;20046;-59
2022/02/21 15:36:41;;;;;;;1.90;0.70;;;;;;;5.79;100.00;96354.31;10319975;28;20474;-62
2022/02/21 15:41:52;;;;;;;2.10;0.70;;;;;;;5.71;100.00;96363.22;10319269;28;20054;-63
2022/02/21 15:46:59;;;;;;;2.78;0.90;;;;;;;5.70;100.00;96343.72;10300750;28;20129;-61
2022/02/21 15:52:03;;;;;;;2.53;0.65;;;;;;;5.58;100.00;96363.88;10296991;28;20053;-58
2022/02/21 15:57:09;;;;;;;1.70;0.52;;;;;;;5.42;100.00;96378.19;10296704;28;20058;-55
2022/02/21 16:02:13;;;;;;;2.05;0.70;;;;;;;4.82;100.00;96415.28;10311471;28;20094;-65
2022/02/21 16:07:16;;;;;;;2.67;0.73;;;;;;;4.59;100.00;96408.03;10325711;28;20074;-59
2022/02/21 16:12:20;;;;;;;2.22;0.60;;;;;;;4.38;100.00;96423.78;10328285;28;20132;-66
2022/02/21 16:17:24;;;;;;;1.35;0.70;;;;;;;4.27;100.00;96420.50;10324734;28;20395;-66
2022/02/21 16:22:27;;;;;;;2.17;0.80;;;;;;;4.11;100.00;96400.06;10313950;28;20550;-69
2022/02/21 16:27:32;;;;;;;2.22;0.70;;;;;;;3.99;100.00;96396.91;10301893;28;20121;-64
2022/02/21 16:32:35;;;;;;;2.97;0.73;;;;;;;3.84;100.00;96423.41;10310164;28;20062;-62
2022/02/21 16:37:40;;;;;;;1.50;0.63;;;;;;;3.81;100.00;96413.09;10301542;28;20043;-64
2022/02/21 16:42:44;;;;;;;0.93;0.50;;;;;;;3.78;100.00;96388.63;10305085;28;20137;-62
2022/02/21 16:47:50;;;;;;;0.70;0.40;;;;;;;3.76;100.00;96419.91;10307433;28;20050;-65
2022/02/21 16:52:53;;;;;;;1.25;0.40;;;;;;;3.79;100.00;96422.25;10308756;28;20046;-62
2022/02/21 16:57:58;;;;;;;1.05;0.50;;;;;;;3.80;100.00;96418.59;10307023;28;20055;-60
2022/02/21 17:03:03;;;;;;;0.47;0.40;;;;;;;3.78;100.00;96425.91;10310948;28;20129;-55
2022/02/21 17:08:08;;;;;;;0.50;0.40;;;;;;;3.82;100.00;96437.91;10310731;28;20054;-66
2022/02/21 17:13:12;;;;;;;0.75;0.30;;;;;;;3.83;100.00;96428.88;10311638;28;20070;-62
2022/02/21 17:18:15;;;;;;;0.73;0.20;;;;;;;3.91;100.00;96442.22;10312464;28;20486;-59
2022/02/21 17:23:18;;;;;;;0.75;0.30;;;;;;;3.90;100.00;96445.88;10330535;22;20497;-64
2022/02/21 17:28:23;;;;;;;0.43;0.30;;;;;;;3.92;100.00;96449.22;10351089;28;20502;-55
2022/02/21 17:33:26;;;;;;;0.32;0.22;;;;;;;3.93;100.00;96453.53;10353066;28;20117;-64
2022/02/21 17:38:31;;;;;;;0.30;0.20;;;;;;;3.96;100.00;96463.03;10356748;28;20121;-60
2022/02/21 17:43:36;;;;;;;0.30;0.30;;;;;;;4.00;100.00;96464.34;10335811;28;20057;-61
2022/02/21 17:48:39;;;;;;;0.10;0.10;;;;;;;3.99;100.00;96471.50;10327687;28;20138;-62
2022/02/21 17:53:42;;;;;;;0.30;0.20;;;;;;;3.94;100.00;96484.47;10331421;28;20628;-61
2022/02/21 17:58:47;;;;;;;0.20;0.20;;;;;;;3.92;100.00;96502.50;10339563;28;20084;-61
2022/02/21 18:03:51;;;;;;;0.10;0.10;;;;;;;3.83;100.00;96492.81;10336424;28;20561;-62
2022/02/21 18:08:56;;;;;;;0.20;0.13;;;;;;;3.82;100.00;96507.97;10348334;28;20049;-59
2022/02/21 18:14:02;;;;;;;1.55;0.20;;;;;;;3.84;100.00;96529.94;10328868;28;20042;-64
2022/02/21 18:19:05;;;;;;;0.20;0.20;;;;;;;3.75;100.00;96554.91;10341352;28;20504;-62
2022/02/21 18:24:08;;;;;;;0.65;0.20;;;;;;;3.70;100.00;96563.38;10335516;28;20574;-64
2022/02/21 18:29:14;;;;;;;0.20;0.20;;;;;;;3.70;100.00;96584.69;10337635;28;20042;-63
2022/02/21 18:34:17;;;;;;;0.30;0.20;;;;;;;3.77;100.00;96586.72;10321184;28;20117;-63
2022/02/21 18:39:21;;;;;;;0.10;0.10;;;;;;;3.90;100.00;96610.19;10339542;28;20069;-63
2022/02/21 18:44:27;;;;;;;0.10;0.10;;;;;;;3.94;100.00;96633.66;10336459;28;20050;-63
2022/02/21 18:49:31;;;;;;;0.20;0.20;;;;;;;3.96;100.00;96668.16;10348515;28;20054;-62
2022/02/21 18:54:34;;;;;;;0.20;0.20;;;;;;;4.11;100.00;96687.00;10346276;28;20042;-63
2022/02/21 18:59:39;;;;;;;0.20;0.20;;;;;;;4.25;100.00;96714.84;10348854;28;20210;-62
2022/02/21 19:04:42;;;;;;;0.88;0.20;;;;;;;4.35;100.00;96712.03;10339047;28;20570;-64
2022/02/21 19:09:45;;;;;;;0.65;0.30;;;;;;;4.45;100.00;96739.38;10343329;28;20069;-63
2022/02/21 19:14:50;;;;;;;0.73;0.30;;;;;;;4.47;100.00;96758.72;10351523;28;20353;-64
2022/02/21 19:19:55;;;;;;;0.40;0.40;;;;;;;4.49;100.00;96786.06;10358821;28;20053;-63
2022/02/21 19:25:01;;;;;;;0.68;0.40;;;;;;;4.47;100.00;96812.88;10357528;28;20050;-64
2022/02/21 19:30:08;;;;;;;0.40;0.30;;;;;;;4.46;100.00;96829.03;10342103;28;20428;-66
2022/02/21 19:35:11;;;;;;;1.70;0.50;;;;;;;4.49;100.00;96871.38;10330768;28;20054;-63
2022/02/21 19:40:15;;;;;;;3.25;0.50;;;;;;;4.60;100.00;96904.91;10337029;28;20043;-66
2022/02/21 19:45:23;;;;;;;0.75;0.50;;;;;;;4.27;100.00;96889.63;10340815;28;20552;-66
2022/02/21 19:50:28;;;;;;;0.98;0.60;;;;;;;4.23;100.00;96924.78;10355316;28;20042;-64
2022/02/21 19:55:36;;;;;;;1.55;0.77;;;;;;;4.26;100.00;96941.28;10347084;28;20046;-63
2022/02/21 20:00:40;;;;;;;1.30;0.68;;;;;;;4.19;100.00;96958.06;10348485;28;20038;-63
2022/02/21 20:05:45;;;;;;;1.35;0.65;;;;;;;4.18;100.00;96983.84;10346887;28;20049;-62
2022/02/21 20:10:48;;;;;;;2.35;0.93;;;;;;;4.13;100.00;97015.50;10342203;28;20064;-61
2022/02/21 20:15:54;;;;;;;2.90;0.85;;;;;;;4.07;100.00;97013.44;10343226;28;20141;-63
2022/02/21 20:20:57;;;;;;;2.05;0.70;;;;;;;4.05;100.00;97039.41;10350566;28;20441;-62
2022/02/21 20:26:01;;;;;;;2.53;0.90;;;;;;;3.99;100.00;97075.50;10345266;28;20414;-62
2022/02/21 20:31:31;;;;;;;1.13;0.70;;;;;;;3.98;100.00;97082.66;10342994;28;20109;-58
2022/02/21 20:36:35;;;;;;;3.63;0.80;;;;;;;4.03;100.00;97086.69;10343430;28;20106;-58
2022/02/21 20:41:41;;;;;;;2.45;0.82;;;;;;;4.04;100.00;97101.69;10343100;28;20061;-62
2022/02/21 20:46:46;;;;;;;3.63;0.85;;;;;;;3.94;100.00;97117.75;10340146;28;20074;-63
2022/02/21 20:51:49;;;;;;;3.58;1.00;;;;;;;3.85;100.00;97136.31;10347343;28;21577;-61
2022/02/21 20:56:52;;;;;;;3.20;0.90;;;;;;;3.76;100.00;97147.03;10352832;28;20543;-59
2022/02/21 21:01:57;;;;;;;2.75;0.90;;;;;;;3.86;100.00;97163.78;10352563;28;20093;-61
2022/02/21 21:07:00;;;;;;;3.92;0.98;;;;;;;3.89;100.00;97182.16;10356097;28;20081;-60
2022/02/21 21:12:04;;;;;;;3.00;0.90;;;;;;;3.92;100.00;97202.31;10355821;28;20469;-60
2022/02/21 21:17:08;;;;;;;2.95;1.00;;;;;;;3.91;100.00;97203.31;10353535;28;20165;-60
2022/02/21 21:22:11;;;;;;;6.45;1.20;;;;;;;3.90;100.00;97207.81;10338080;28;20121;-62
2022/02/21 21:27:15;;;;;;;3.88;0.77;;;;;;;3.92;100.00;97240.47;10328674;28;20085;-60
2022/02/21 21:32:20;;;;;;;4.07;1.13;;;;;;;3.89;100.00;97232.78;10332576;28;20133;-58
2022/02/21 21:37:25;;;;;;;3.78;0.95;;;;;;;3.85;100.00;97231.38;10334787;28;20046;-61
2022/02/21 21:42:30;;;;;;;3.42;0.93;;;;;;;3.83;100.00;97247.53;10327626;28;20046;-64
2022/02/21 21:47:34;;;;;;;3.33;0.88;;;;;;;3.79;100.00;97259.44;10329368;28;20050;-58
2022/02/21 21:52:39;;;;;;;3.35;0.80;;;;;;;3.78;100.00;97265.75;10334034;28;20500;-60
2022/02/21 21:58:32;;;;;;;3.83;1.20;;;;;;;3.81;100.00;97277.97;10331172;28;20058;-62
2022/02/21 22:03:38;;;;;;;3.40;0.90;;;;;;;3.83;100.00;97298.16;10336104;28;20380;-61
2022/02/21 22:08:41;;;;;;;5.13;1.20;;;;;;;3.80;100.00;97302.94;10337107;28;20030;-61
2022/02/21 22:13:45;;;;;;;4.15;1.13;;;;;;;3.82;100.00;97311.63;10334243;28;20137;-62
2022/02/21 22:18:49;;;;;;;5.72;1.40;;;;;;;3.75;100.00;97316.69;10340802;28;20521;-60
2022/02/21 22:23:52;;;;;;;6.55;1.35;;;;;;;3.79;100.00;97342.03;10334317;28;20078;-62
2022/02/21 22:28:56;;;;;;;4.60;1.08;;;;;;;3.82;100.00;97351.59;10342273;28;20112;-62
2022/02/21 22:34:01;;;;;;;3.80;1.10;;;;;;;3.83;100.00;97338.09;10343570;28;20518;-62
2022/02/21 22:39:06;;;;;;;4.80;1.10;;;;;;;3.90;100.00;97358.81;10347698;28;20046;-61
2022/02/21 22:44:10;;;;;;;5.75;1.17;;;;;;;3.84;100.00;97350.44;10339688;28;20969;-62
2022/02/21 22:49:14;;;;;;;3.08;1.00;;;;;;;3.82;100.00;97356.91;10350699;28;20046;-62
2022/02/21 22:54:17;;;;;;;3.47;0.90;;;;;;;3.75;100.00;97390.41;10342906;28;20080;-62
2022/02/21 22:59:21;;;;;;;3.72;1.00;;;;;;;3.77;100.00;97381.28;10355868;28;20132;-61
2022/02/21 23:09:46;;;;;;;2.53;0.90;;;;;;;3.83;100.00;97388.72;10346233;28;20081;-62
2022/02/21 23:14:49;;;;;;;3.60;0.85;;;;;;;3.84;100.00;97394.88;10324030;28;20121;-60
2022/02/21 23:19:54;;;;;;;2.72;0.75;;;;;;;3.75;100.00;97406.41;10322010;28;20141;-63
2022/02/21 23:24:57;;;;;;;4.85;1.15;;;;;;;3.50;100.00;97422.00;10321674;28;20584;-59
2022/02/21 23:30:00;;;;;;;2.95;0.60;;;;;;;3.27;100.00;97430.28;10325932;28;20042;-60
2022/02/21 23:35:06;;;;;;;1.65;0.47;;;;;;;3.12;100.00;97437.84;10334958;28;20427;-61
2022/02/21 23:40:12;;;;;;;1.98;0.50;;;;;;;3.05;100.00;97432.22;10344664;28;20140;-62
2022/02/21 23:45:16;;;;;;;2.35;0.57;;;;;;;3.06;100.00;97460.50;10327621;28;20506;-58
2022/02/21 23:50:21;;;;;;;2.65;0.50;;;;;;;3.11;100.00;97454.78;10336610;28;20121;-60
2022/02/21 23:56:23;;;;;;;1.40;0.57;;;;;;;3.26;100.00;97476.50;10332640;28;20093;-61
